Overview Statistics Trail Chart Weather Telemetry Raw packets
 

This is the latest recevied weather packets stored in our database for station/object R2AKT-13. If no packets are shown the sender has not sent any weather packets the latest 10 day(s).

<< 32 33 34 35 36 37 38 >>
Time Temp. Humidity Pressure Rain* Wind** Luminosity Snow
1788271761 23.89° C 48% 989.6 hPa - 2.68 m/s, 203° - -
1788271186 23.33° C 49% 989.8 hPa - 2.68 m/s, 179° - -
1788270706 23.89° C 49% 990 hPa - 1.34 m/s, 148° - -
1788270146 23.33° C 49% 989.9 hPa - 3.58 m/s, 175° - -
1788269648 23.89° C 48% 989.9 hPa - 2.24 m/s, 162° - -
1788269146 23.89° C 49% 990 hPa - 2.68 m/s, 158° - -
1788268551 23.89° C 48% 990.1 hPa - 0.89 m/s, 198° - -
1788268056 23.89° C 48% 990 hPa - 3.58 m/s, 175° - -
1788267461 23.33° C 49% 990.3 hPa - 4.47 m/s, 172° - -
1788266916 23.33° C 50% 990.4 hPa - 4.47 m/s, 174° - -
1788266411 22.78° C 51% 990.6 hPa - 4.92 m/s, 172° - -
1788265831 23.33° C 51% 990.7 hPa - 4.47 m/s, 175° - -
1788265246 23.89° C 48% 990.9 hPa - 1.79 m/s, 162° - -
1788264656 23.33° C 51% 991 hPa - 1.79 m/s, 175° - -
1788264146 23.33° C 51% 991 hPa - 4.47 m/s, 170° - -
1788263636 24.44° C 49% 991 hPa - 0.89 m/s, 184° - -
1788263111 22.78° C 53% 991.2 hPa - 4.02 m/s, 176° - -
1788262591 22.78° C 54% 991.3 hPa - 4.92 m/s, 171° - -
1788262096 22.78° C 53% 991.2 hPa - 4.47 m/s, 173° - -
1788261581 23.33° C 52% 991.2 hPa - 1.34 m/s, 200° - -
1788260986 23.89° C 51% 991.2 hPa - 2.24 m/s, 188° - -
1788260426 23.33° C 52% 991.4 hPa - 1.79 m/s, 194° - -
1788259836 23.33° C 52% 991.4 hPa - 1.79 m/s, 210° - -
1788259274 23.33° C 53% 991.6 hPa - 1.34 m/s, 180° - -
1788258681 22.78° C 53% 991.7 hPa - 3.58 m/s, 175° - -

* Rain since midnight (hover to see other rain measurements)
** Current wind speed in m/s (hover to see current wind gust speed)